sensor_id;sensor_type;location;lat;lon;timestamp;pressure;altitude;pressure_sealevel;temperature;humidity
52935;BME280;38802;50.198;19.796;2023-07-30T00:00:50;95613.63;;;17.85;87.16
52935;BME280;38802;50.198;19.796;2023-07-30T00:03:37;95610.27;;;17.82;87.01
52935;BME280;38802;50.198;19.796;2023-07-30T00:06:04;95610.88;;;17.82;87.08
52935;BME280;38802;50.198;19.796;2023-07-30T00:08:30;95610.58;;;17.84;87.39
52935;BME280;38802;50.198;19.796;2023-07-30T00:10:57;95612.42;;;17.83;87.37
52935;BME280;38802;50.198;19.796;2023-07-30T00:13:25;95613.02;;;17.84;87.55
52935;BME280;38802;50.198;19.796;2023-07-30T00:15:52;95614.79;;;17.84;87.66
52935;BME280;38802;50.198;19.796;2023-07-30T00:18:19;95621.11;;;17.84;87.51
52935;BME280;38802;50.198;19.796;2023-07-30T00:20:45;95615.84;;;17.84;87.61
52935;BME280;38802;50.198;19.796;2023-07-30T00:23:12;95623.08;;;17.85;87.61
52935;BME280;38802;50.198;19.796;2023-07-30T00:25:39;95619.34;;;17.85;87.60
52935;BME280;38802;50.198;19.796;2023-07-30T00:28:05;95613.35;;;17.86;87.94
52935;BME280;38802;50.198;19.796;2023-07-30T00:30:32;95615.14;;;17.87;87.61
52935;BME280;38802;50.198;19.796;2023-07-30T00:32:59;95617.11;;;17.88;87.88
52935;BME280;38802;50.198;19.796;2023-07-30T00:35:25;95617.86;;;17.87;87.71
52935;BME280;38802;50.198;19.796;2023-07-30T00:37:52;95613.86;;;17.87;87.77
52935;BME280;38802;50.198;19.796;2023-07-30T00:40:20;95616.73;;;17.88;87.66
52935;BME280;38802;50.198;19.796;2023-07-30T00:42:46;95615.90;;;17.89;87.89
52935;BME280;38802;50.198;19.796;2023-07-30T00:45:13;95620.03;;;17.88;87.58
52935;BME280;38802;50.198;19.796;2023-07-30T00:47:41;95617.45;;;17.90;87.58
52935;BME280;38802;50.198;19.796;2023-07-30T00:50:08;95614.89;;;17.90;87.54
52935;BME280;38802;50.198;19.796;2023-07-30T00:52:36;95619.98;;;17.92;87.70
52935;BME280;38802;50.198;19.796;2023-07-30T00:55:03;95617.66;;;17.91;87.77
52935;BME280;38802;50.198;19.796;2023-07-30T00:57:30;95614.71;;;17.92;87.52
52935;BME280;38802;50.198;19.796;2023-07-30T00:59:58;95605.08;;;17.93;87.31
52935;BME280;38802;50.198;19.796;2023-07-30T01:02:25;95604.72;;;17.94;87.41
52935;BME280;38802;50.198;19.796;2023-07-30T01:04:54;95606.94;;;17.94;87.17
52935;BME280;38802;50.198;19.796;2023-07-30T01:07:21;95606.73;;;17.93;87.47
52935;BME280;38802;50.198;19.796;2023-07-30T01:09:47;95613.50;;;17.93;87.47
52935;BME280;38802;50.198;19.796;2023-07-30T01:12:14;95612.48;;;17.93;87.50
52935;BME280;38802;50.198;19.796;2023-07-30T01:14:43;95616.10;;;17.92;87.49
52935;BME280;38802;50.198;19.796;2023-07-30T01:17:11;95622.63;;;17.92;87.59
52935;BME280;38802;50.198;19.796;2023-07-30T01:19:38;95620.70;;;17.90;87.54
52935;BME280;38802;50.198;19.796;2023-07-30T01:22:04;95620.20;;;17.88;87.45
52935;BME280;38802;50.198;19.796;2023-07-30T01:24:32;95619.36;;;17.87;87.62
52935;BME280;38802;50.198;19.796;2023-07-30T01:27:23;95626.72;;;17.84;87.54
52935;BME280;38802;50.198;19.796;2023-07-30T01:29:52;95625.05;;;17.80;87.67
52935;BME280;38802;50.198;19.796;2023-07-30T01:32:25;95623.02;;;17.78;87.70
52935;BME280;38802;50.198;19.796;2023-07-30T01:34:54;95626.96;;;17.76;87.58
52935;BME280;38802;50.198;19.796;2023-07-30T01:37:22;95623.18;;;17.75;87.86
52935;BME280;38802;50.198;19.796;2023-07-30T01:39:50;95628.77;;;17.74;87.90
52935;BME280;38802;50.198;19.796;2023-07-30T01:42:17;95631.88;;;17.73;88.04
52935;BME280;38802;50.198;19.796;2023-07-30T01:44:44;95629.73;;;17.71;88.09
52935;BME280;38802;50.198;19.796;2023-07-30T01:47:11;95635.35;;;17.68;88.21
52935;BME280;38802;50.198;19.796;2023-07-30T01:49:37;95637.60;;;17.65;88.12
52935;BME280;38802;50.198;19.796;2023-07-30T01:52:04;95639.75;;;17.63;88.17
52935;BME280;38802;50.198;19.796;2023-07-30T01:54:31;95637.58;;;17.61;88.17
52935;BME280;38802;50.198;19.796;2023-07-30T01:56:59;95632.58;;;17.60;88.32
52935;BME280;38802;50.198;19.796;2023-07-30T01:59:26;95630.36;;;17.58;88.38
52935;BME280;38802;50.198;19.796;2023-07-30T02:01:53;95629.59;;;17.54;88.34
52935;BME280;38802;50.198;19.796;2023-07-30T02:04:19;95632.45;;;17.52;88.42
52935;BME280;38802;50.198;19.796;2023-07-30T02:06:46;95632.65;;;17.49;88.45
52935;BME280;38802;50.198;19.796;2023-07-30T02:09:12;95635.48;;;17.46;88.48
52935;BME280;38802;50.198;19.796;2023-07-30T02:11:40;95637.11;;;17.43;88.50
52935;BME280;38802;50.198;19.796;2023-07-30T02:14:06;95631.09;;;17.39;88.41
52935;BME280;38802;50.198;19.796;2023-07-30T02:16:33;95633.38;;;17.36;88.49
52935;BME280;38802;50.198;19.796;2023-07-30T02:19:00;95639.08;;;17.34;88.64
52935;BME280;38802;50.198;19.796;2023-07-30T02:21:26;95636.92;;;17.31;88.99
52935;BME280;38802;50.198;19.796;2023-07-30T02:23:53;95641.70;;;17.27;89.05
52935;BME280;38802;50.198;19.796;2023-07-30T02:26:20;95645.36;;;17.25;89.11
52935;BME280;38802;50.198;19.796;2023-07-30T02:28:47;95646.30;;;17.23;89.19
52935;BME280;38802;50.198;19.796;2023-07-30T02:31:13;95642.80;;;17.21;89.14
52935;BME280;38802;50.198;19.796;2023-07-30T02:33:40;95642.15;;;17.21;89.57
52935;BME280;38802;50.198;19.796;2023-07-30T02:36:06;95638.59;;;17.21;89.59
52935;BME280;38802;50.198;19.796;2023-07-30T02:38:33;95635.89;;;17.19;89.51
52935;BME280;38802;50.198;19.796;2023-07-30T02:41:01;95637.42;;;17.16;89.82
52935;BME280;38802;50.198;19.796;2023-07-30T02:43:28;95636.31;;;17.13;89.70
52935;BME280;38802;50.198;19.796;2023-07-30T02:45:54;95642.30;;;17.09;89.75
52935;BME280;38802;50.198;19.796;2023-07-30T02:48:21;95643.27;;;17.06;89.81
52935;BME280;38802;50.198;19.796;2023-07-30T02:50:49;95641.10;;;17.05;89.93
52935;BME280;38802;50.198;19.796;2023-07-30T02:53:15;95634.70;;;17.01;89.77
52935;BME280;38802;50.198;19.796;2023-07-30T02:55:42;95640.48;;;16.98;89.90
52935;BME280;38802;50.198;19.796;2023-07-30T02:58:09;95640.40;;;16.98;89.88
52935;BME280;38802;50.198;19.796;2023-07-30T03:00:35;95641.98;;;16.94;89.73
52935;BME280;38802;50.198;19.796;2023-07-30T03:03:04;95642.91;;;16.92;89.74
52935;BME280;38802;50.198;19.796;2023-07-30T03:05:31;95643.93;;;16.89;89.97
52935;BME280;38802;50.198;19.796;2023-07-30T03:07:58;95647.48;;;16.88;90.09
52935;BME280;38802;50.198;19.796;2023-07-30T03:10:25;95650.20;;;16.84;89.77
52935;BME280;38802;50.198;19.796;2023-07-30T03:12:52;95651.52;;;16.82;90.03
52935;BME280;38802;50.198;19.796;2023-07-30T03:15:18;95651.86;;;16.79;90.01
52935;BME280;38802;50.198;19.796;2023-07-30T03:17:45;95649.92;;;16.76;90.09
52935;BME280;38802;50.198;19.796;2023-07-30T03:20:12;95652.96;;;16.74;90.14
52935;BME280;38802;50.198;19.796;2023-07-30T03:22:39;95657.89;;;16.71;89.97
52935;BME280;38802;50.198;19.796;2023-07-30T03:25:07;95661.15;;;16.67;90.05
52935;BME280;38802;50.198;19.796;2023-07-30T03:27:34;95669.50;;;16.66;90.13
52935;BME280;38802;50.198;19.796;2023-07-30T03:30:01;95676.38;;;16.63;90.15
52935;BME280;38802;50.198;19.796;2023-07-30T03:32:28;95681.48;;;16.62;90.39
52935;BME280;38802;50.198;19.796;2023-07-30T03:34:54;95679.60;;;16.58;90.29
52935;BME280;38802;50.198;19.796;2023-07-30T03:37:21;95679.04;;;16.56;90.42
52935;BME280;38802;50.198;19.796;2023-07-30T03:39:48;95679.13;;;16.52;90.55
52935;BME280;38802;50.198;19.796;2023-07-30T03:42:15;95684.09;;;16.49;90.51
52935;BME280;38802;50.198;19.796;2023-07-30T03:44:41;95683.27;;;16.47;90.49
52935;BME280;38802;50.198;19.796;2023-07-30T03:47:08;95682.63;;;16.43;90.53
52935;BME280;38802;50.198;19.796;2023-07-30T03:49:35;95688.11;;;16.40;90.53
52935;BME280;38802;50.198;19.796;2023-07-30T03:52:01;95692.82;;;16.38;90.56
52935;BME280;38802;50.198;19.796;2023-07-30T03:54:28;95691.17;;;16.34;90.51
52935;BME280;38802;50.198;19.796;2023-07-30T03:56:55;95687.48;;;16.31;90.43
52935;BME280;38802;50.198;19.796;2023-07-30T03:59:21;95700.20;;;16.30;90.52
52935;BME280;38802;50.198;19.796;2023-07-30T04:01:48;95700.95;;;16.28;90.47
52935;BME280;38802;50.198;19.796;2023-07-30T04:04:16;95699.10;;;16.27;90.57
52935;BME280;38802;50.198;19.796;2023-07-30T04:06:42;95702.04;;;16.26;90.66
52935;BME280;38802;50.198;19.796;2023-07-30T04:09:09;95700.02;;;16.27;90.58
52935;BME280;38802;50.198;19.796;2023-07-30T04:11:37;95701.02;;;16.28;90.79
52935;BME280;38802;50.198;19.796;2023-07-30T04:14:04;95704.95;;;16.28;90.75
52935;BME280;38802;50.198;19.796;2023-07-30T04:16:34;95705.11;;;16.29;90.78
52935;BME280;38802;50.198;19.796;2023-07-30T04:19:01;95702.63;;;16.27;90.84
52935;BME280;38802;50.198;19.796;2023-07-30T04:21:27;95706.31;;;16.27;90.70
52935;BME280;38802;50.198;19.796;2023-07-30T04:23:54;95707.25;;;16.28;90.82
52935;BME280;38802;50.198;19.796;2023-07-30T04:26:20;95703.75;;;16.30;90.99
52935;BME280;38802;50.198;19.796;2023-07-30T04:28:47;95699.25;;;16.31;90.99
52935;BME280;38802;50.198;19.796;2023-07-30T04:31:14;95699.77;;;16.31;90.97
52935;BME280;38802;50.198;19.796;2023-07-30T04:33:41;95706.99;;;16.32;91.03
52935;BME280;38802;50.198;19.796;2023-07-30T04:36:08;95712.15;;;16.33;91.03
52935;BME280;38802;50.198;19.796;2023-07-30T04:38:34;95714.66;;;16.36;91.15
52935;BME280;38802;50.198;19.796;2023-07-30T04:41:03;95717.52;;;16.37;91.24
52935;BME280;38802;50.198;19.796;2023-07-30T04:43:32;95720.21;;;16.41;91.17
52935;BME280;38802;50.198;19.796;2023-07-30T04:45:59;95719.10;;;16.44;91.08
52935;BME280;38802;50.198;19.796;2023-07-30T04:48:26;95723.38;;;16.49;91.11
52935;BME280;38802;50.198;19.796;2023-07-30T04:50:53;95731.72;;;16.51;91.22
52935;BME280;38802;50.198;19.796;2023-07-30T04:53:19;95733.56;;;16.54;91.18
52935;BME280;38802;50.198;19.796;2023-07-30T04:55:47;95735.80;;;16.58;91.10
52935;BME280;38802;50.198;19.796;2023-07-30T04:58:13;95736.41;;;16.60;91.21
52935;BME280;38802;50.198;19.796;2023-07-30T05:00:40;95740.25;;;16.62;91.02
52935;BME280;38802;50.198;19.796;2023-07-30T05:03:07;95737.08;;;16.63;90.77
52935;BME280;38802;50.198;19.796;2023-07-30T05:05:34;95736.72;;;16.67;90.82
52935;BME280;38802;50.198;19.796;2023-07-30T05:08:00;95741.29;;;16.72;90.73
52935;BME280;38802;50.198;19.796;2023-07-30T05:10:27;95735.06;;;16.77;90.81
52935;BME280;38802;50.198;19.796;2023-07-30T05:12:54;95740.01;;;16.88;90.75
52935;BME280;38802;50.198;19.796;2023-07-30T05:15:21;95735.45;;;17.01;90.83
52935;BME280;38802;50.198;19.796;2023-07-30T05:17:48;95730.81;;;17.15;90.68
52935;BME280;38802;50.198;19.796;2023-07-30T05:20:14;95731.55;;;17.31;90.76
52935;BME280;38802;50.198;19.796;2023-07-30T05:22:41;95733.52;;;17.52;90.72
52935;BME280;38802;50.198;19.796;2023-07-30T05:25:08;95735.83;;;17.63;90.26
52935;BME280;38802;50.198;19.796;2023-07-30T05:27:35;95736.52;;;17.75;89.90
52935;BME280;38802;50.198;19.796;2023-07-30T05:30:02;95738.13;;;17.96;89.92
52935;BME280;38802;50.198;19.796;2023-07-30T05:32:29;95739.03;;;18.20;89.74
52935;BME280;38802;50.198;19.796;2023-07-30T05:34:56;95737.34;;;18.43;89.33
52935;BME280;38802;50.198;19.796;2023-07-30T05:37:22;95737.88;;;18.63;89.08
52935;BME280;38802;50.198;19.796;2023-07-30T05:39:49;95738.06;;;18.86;88.31
52935;BME280;38802;50.198;19.796;2023-07-30T05:42:16;95739.41;;;19.02;86.83
52935;BME280;38802;50.198;19.796;2023-07-30T05:44:43;95743.48;;;19.14;86.95
52935;BME280;38802;50.198;19.796;2023-07-30T05:47:09;95747.05;;;19.30;86.13
52935;BME280;38802;50.198;19.796;2023-07-30T05:49:36;95748.37;;;19.43;86.27
52935;BME280;38802;50.198;19.796;2023-07-30T05:52:03;95749.62;;;19.54;85.89
52935;BME280;38802;50.198;19.796;2023-07-30T05:54:30;95753.80;;;19.64;85.26
52935;BME280;38802;50.198;19.796;2023-07-30T05:56:56;95756.33;;;19.78;85.22
52935;BME280;38802;50.198;19.796;2023-07-30T05:59:23;95758.48;;;19.92;84.56
52935;BME280;38802;50.198;19.796;2023-07-30T06:01:49;95757.75;;;20.05;83.67
52935;BME280;38802;50.198;19.796;2023-07-30T06:04:16;95763.10;;;20.20;83.84
52935;BME280;38802;50.198;19.796;2023-07-30T06:06:43;95763.14;;;20.33;83.27
52935;BME280;38802;50.198;19.796;2023-07-30T06:09:09;95769.53;;;20.41;82.51
52935;BME280;38802;50.198;19.796;2023-07-30T06:11:38;95774.91;;;20.53;82.42
52935;BME280;38802;50.198;19.796;2023-07-30T06:14:07;95776.20;;;20.66;81.88
52935;BME280;38802;50.198;19.796;2023-07-30T06:16:35;95772.38;;;20.82;81.45
52935;BME280;38802;50.198;19.796;2023-07-30T06:19:02;95773.55;;;20.95;81.25
52935;BME280;38802;50.198;19.796;2023-07-30T06:21:28;95767.52;;;21.04;80.06
52935;BME280;38802;50.198;19.796;2023-07-30T06:23:55;95763.42;;;21.12;79.55
52935;BME280;38802;50.198;19.796;2023-07-30T06:26:22;95761.44;;;21.22;78.94
52935;BME280;38802;50.198;19.796;2023-07-30T06:28:48;95755.89;;;21.33;78.45
52935;BME280;38802;50.198;19.796;2023-07-30T06:31:15;95752.61;;;21.45;78.37
52935;BME280;38802;50.198;19.796;2023-07-30T06:33:43;95753.20;;;21.57;77.67
52935;BME280;38802;50.198;19.796;2023-07-30T06:36:09;95747.12;;;21.62;76.77
52935;BME280;38802;50.198;19.796;2023-07-30T06:38:36;95750.06;;;21.67;76.74
52935;BME280;38802;50.198;19.796;2023-07-30T06:41:04;95752.11;;;21.74;76.38
52935;BME280;38802;50.198;19.796;2023-07-30T06:43:31;95752.16;;;21.84;76.11
52935;BME280;38802;50.198;19.796;2023-07-30T06:45:58;95753.67;;;21.95;75.94
52935;BME280;38802;50.198;19.796;2023-07-30T06:48:24;95758.23;;;22.07;75.54
52935;BME280;38802;50.198;19.796;2023-07-30T06:50:51;95755.13;;;22.17;74.29
52935;BME280;38802;50.198;19.796;2023-07-30T06:53:18;95754.20;;;22.25;74.64
52935;BME280;38802;50.198;19.796;2023-07-30T06:55:44;95756.89;;;22.35;73.10
52935;BME280;38802;50.198;19.796;2023-07-30T06:58:11;95764.00;;;22.41;73.33
52935;BME280;38802;50.198;19.796;2023-07-30T07:00:38;95762.59;;;22.48;72.55
52935;BME280;38802;50.198;19.796;2023-07-30T07:03:04;95763.11;;;22.52;71.98
52935;BME280;38802;50.198;19.796;2023-07-30T07:05:31;95763.14;;;22.63;72.06
52935;BME280;38802;50.198;19.796;2023-07-30T07:07:58;95762.95;;;22.78;71.76
52935;BME280;38802;50.198;19.796;2023-07-30T07:10:24;95757.95;;;22.82;71.24
52935;BME280;38802;50.198;19.796;2023-07-30T07:12:51;95753.05;;;22.88;71.37
52935;BME280;38802;50.198;19.796;2023-07-30T07:15:18;95753.05;;;22.94;71.07
52935;BME280;38802;50.198;19.796;2023-07-30T07:17:45;95752.48;;;23.01;70.48
52935;BME280;38802;50.198;19.796;2023-07-30T07:20:12;95755.49;;;23.05;69.73
52935;BME280;38802;50.198;19.796;2023-07-30T07:22:41;95759.08;;;23.12;70.27
52935;BME280;38802;50.198;19.796;2023-07-30T07:25:08;95761.73;;;23.22;69.15
52935;BME280;38802;50.198;19.796;2023-07-30T07:27:35;95761.09;;;23.31;70.11
52935;BME280;38802;50.198;19.796;2023-07-30T07:30:02;95758.83;;;23.39;69.77
52935;BME280;38802;50.198;19.796;2023-07-30T07:32:29;95758.31;;;23.48;69.36
52935;BME280;38802;50.198;19.796;2023-07-30T07:34:56;95753.92;;;23.57;69.47
52935;BME280;38802;50.198;19.796;2023-07-30T07:37:22;95755.40;;;23.61;69.00
52935;BME280;38802;50.198;19.796;2023-07-30T07:39:49;95757.75;;;23.58;67.79
52935;BME280;38802;50.198;19.796;2023-07-30T07:42:15;95765.33;;;23.51;68.27
52935;BME280;38802;50.198;19.796;2023-07-30T07:44:42;95764.86;;;23.48;68.16
52935;BME280;38802;50.198;19.796;2023-07-30T07:47:12;95763.91;;;23.49;68.23
52935;BME280;38802;50.198;19.796;2023-07-30T07:49:39;95758.06;;;23.57;67.38
52935;BME280;38802;50.198;19.796;2023-07-30T07:52:06;95757.73;;;23.56;67.01
52935;BME280;38802;50.198;19.796;2023-07-30T07:54:34;95759.81;;;23.56;67.33
52935;BME280;38802;50.198;19.796;2023-07-30T07:57:01;95760.46;;;23.58;67.03
52935;BME280;38802;50.198;19.796;2023-07-30T07:59:28;95761.38;;;23.56;67.17
52935;BME280;38802;50.198;19.796;2023-07-30T08:01:55;95760.22;;;23.58;66.78
52935;BME280;38802;50.198;19.796;2023-07-30T08:04:22;95762.55;;;23.57;66.49
52935;BME280;38802;50.198;19.796;2023-07-30T08:06:49;95758.55;;;23.55;66.81
52935;BME280;38802;50.198;19.796;2023-07-30T08:09:15;95769.51;;;23.58;66.53
52935;BME280;38802;50.198;19.796;2023-07-30T08:11:42;95770.33;;;23.59;66.01
52935;BME280;38802;50.198;19.796;2023-07-30T08:14:09;95776.07;;;23.53;66.23
52935;BME280;38802;50.198;19.796;2023-07-30T08:16:36;95775.29;;;23.55;66.38
52935;BME280;38802;50.198;19.796;2023-07-30T08:19:02;95770.34;;;23.64;66.76
52935;BME280;38802;50.198;19.796;2023-07-30T08:21:29;95768.93;;;23.75;66.70
52935;BME280;38802;50.198;19.796;2023-07-30T08:23:56;95767.86;;;23.79;66.67
52935;BME280;38802;50.198;19.796;2023-07-30T08:26:22;95765.15;;;23.80;66.15
52935;BME280;38802;50.198;19.796;2023-07-30T08:28:49;95766.45;;;23.80;65.29
52935;BME280;38802;50.198;19.796;2023-07-30T08:31:15;95779.23;;;23.76;65.31
52935;BME280;38802;50.198;19.796;2023-07-30T08:33:43;95784.27;;;23.77;65.58
52935;BME280;38802;50.198;19.796;2023-07-30T08:36:10;95781.50;;;23.83;65.27
52935;BME280;38802;50.198;19.796;2023-07-30T08:38:36;95774.23;;;23.88;65.45
52935;BME280;38802;50.198;19.796;2023-07-30T08:41:03;95775.83;;;23.93;65.17
52935;BME280;38802;50.198;19.796;2023-07-30T08:43:30;95784.48;;;23.98;64.42
52935;BME280;38802;50.198;19.796;2023-07-30T08:45:57;95779.23;;;23.98;63.71
52935;BME280;38802;50.198;19.796;2023-07-30T08:48:24;95774.53;;;23.91;64.09
52935;BME280;38802;50.198;19.796;2023-07-30T08:50:59;95776.57;;;23.91;63.61
52935;BME280;38802;50.198;19.796;2023-07-30T08:53:29;95784.98;;;23.95;63.94
52935;BME280;38802;50.198;19.796;2023-07-30T08:56:00;95782.70;;;24.04;64.16
52935;BME280;38802;50.198;19.796;2023-07-30T08:58:44;95784.23;;;24.09;63.36
52935;BME280;38802;50.198;19.796;2023-07-30T09:01:14;95788.63;;;24.08;63.69
52935;BME280;38802;50.198;19.796;2023-07-30T09:03:42;95791.86;;;24.13;63.16
52935;BME280;38802;50.198;19.796;2023-07-30T09:06:09;95791.92;;;24.10;63.31
52935;BME280;38802;50.198;19.796;2023-07-30T09:08:36;95793.27;;;24.16;63.21
52935;BME280;38802;50.198;19.796;2023-07-30T09:11:10;95789.73;;;24.17;62.72
52935;BME280;38802;50.198;19.796;2023-07-30T09:13:38;95789.73;;;24.19;62.92
52935;BME280;38802;50.198;19.796;2023-07-30T09:16:12;95787.46;;;24.26;62.93
52935;BME280;38802;50.198;19.796;2023-07-30T09:18:41;95786.64;;;24.26;62.63
52935;BME280;38802;50.198;19.796;2023-07-30T09:21:10;95787.85;;;24.24;62.65
52935;BME280;38802;50.198;19.796;2023-07-30T09:23:42;95789.22;;;24.22;62.39
52935;BME280;38802;50.198;19.796;2023-07-30T09:26:09;95789.97;;;24.20;62.22
52935;BME280;38802;50.198;19.796;2023-07-30T09:28:36;95792.83;;;24.18;61.16
52935;BME280;38802;50.198;19.796;2023-07-30T09:31:06;95791.73;;;24.13;61.24
52935;BME280;38802;50.198;19.796;2023-07-30T09:33:47;95789.66;;;24.11;60.82
52935;BME280;38802;50.198;19.796;2023-07-30T09:36:15;95786.19;;;24.07;60.79
52935;BME280;38802;50.198;19.796;2023-07-30T09:38:42;95787.08;;;24.04;60.26
52935;BME280;38802;50.198;19.796;2023-07-30T09:41:11;95787.17;;;24.06;60.51
52935;BME280;38802;50.198;19.796;2023-07-30T09:43:38;95787.74;;;24.11;61.01
52935;BME280;38802;50.198;19.796;2023-07-30T09:46:06;95786.50;;;24.16;61.15
52935;BME280;38802;50.198;19.796;2023-07-30T09:48:34;95781.75;;;24.19;61.29
52935;BME280;38802;50.198;19.796;2023-07-30T09:51:03;95777.23;;;24.24;61.15
52935;BME280;38802;50.198;19.796;2023-07-30T09:53:30;95775.00;;;24.25;61.26
52935;BME280;38802;50.198;19.796;2023-07-30T09:56:02;95773.40;;;24.31;61.44
52935;BME280;38802;50.198;19.796;2023-07-30T09:58:30;95772.13;;;24.34;61.12
52935;BME280;38802;50.198;19.796;2023-07-30T10:01:00;95770.96;;;24.36;61.19
52935;BME280;38802;50.198;19.796;2023-07-30T10:03:28;95772.13;;;24.34;60.97
52935;BME280;38802;50.198;19.796;2023-07-30T10:06:02;95772.23;;;24.35;60.77
52935;BME280;38802;50.198;19.796;2023-07-30T10:08:31;95770.39;;;24.39;60.65
52935;BME280;38802;50.198;19.796;2023-07-30T10:11:03;95769.48;;;24.39;59.95
52935;BME280;38802;50.198;19.796;2023-07-30T10:13:31;95771.56;;;24.37;60.18
52935;BME280;38802;50.198;19.796;2023-07-30T10:15:58;95767.27;;;24.32;59.06
52935;BME280;38802;50.198;19.796;2023-07-30T10:18:34;95776.13;;;24.20;59.97
52935;BME280;38802;50.198;19.796;2023-07-30T10:21:07;95772.58;;;24.19;60.19
52935;BME280;38802;50.198;19.796;2023-07-30T10:23:35;95772.92;;;24.25;60.45
52935;BME280;38802;50.198;19.796;2023-07-30T10:26:09;95773.20;;;24.26;60.30
52935;BME280;38802;50.198;19.796;2023-07-30T10:28:39;95768.76;;;24.28;60.38
52935;BME280;38802;50.198;19.796;2023-07-30T10:31:10;95770.35;;;24.28;60.34
52935;BME280;38802;50.198;19.796;2023-07-30T10:33:53;95771.16;;;24.29;60.34
52935;BME280;38802;50.198;19.796;2023-07-30T10:39:15;95766.33;;;24.29;60.32
52935;BME280;38802;50.198;19.796;2023-07-30T10:41:43;95770.68;;;24.38;60.58
52935;BME280;38802;50.198;19.796;2023-07-30T10:44:26;95774.04;;;24.46;60.49
52935;BME280;38802;50.198;19.796;2023-07-30T10:46:54;95772.40;;;24.48;60.32
52935;BME280;38802;50.198;19.796;2023-07-30T10:49:22;95768.05;;;24.43;60.23
52935;BME280;38802;50.198;19.796;2023-07-30T10:51:54;95767.98;;;24.38;60.25
52935;BME280;38802;50.198;19.796;2023-07-30T10:54:21;95766.86;;;24.42;60.34
52935;BME280;38802;50.198;19.796;2023-07-30T10:56:48;95762.75;;;24.47;60.21
52935;BME280;38802;50.198;19.796;2023-07-30T10:59:15;95762.36;;;24.45;60.21
52935;BME280;38802;50.198;19.796;2023-07-30T11:01:45;95760.52;;;24.42;60.10
52935;BME280;38802;50.198;19.796;2023-07-30T11:04:18;95759.38;;;24.32;59.55
52935;BME280;38802;50.198;19.796;2023-07-30T11:06:49;95762.77;;;24.20;59.44
52935;BME280;38802;50.198;19.796;2023-07-30T11:09:21;95767.21;;;24.16;59.85
52935;BME280;38802;50.198;19.796;2023-07-30T11:11:49;95766.39;;;24.16;60.09
52935;BME280;38802;50.198;19.796;2023-07-30T11:14:17;95768.79;;;24.20;60.23
52935;BME280;38802;50.198;19.796;2023-07-30T11:16:57;95765.64;;;24.24;60.40
52935;BME280;38802;50.198;19.796;2023-07-30T11:19:28;95759.35;;;24.26;60.48
52935;BME280;38802;50.198;19.796;2023-07-30T11:21:56;95761.33;;;24.22;60.48
52935;BME280;38802;50.198;19.796;2023-07-30T11:24:36;95754.23;;;24.18;60.63
52935;BME280;38802;50.198;19.796;2023-07-30T11:27:03;95755.59;;;24.15;60.84
52935;BME280;38802;50.198;19.796;2023-07-30T11:29:31;95757.83;;;24.17;60.85
52935;BME280;38802;50.198;19.796;2023-07-30T11:31:59;95757.88;;;24.15;60.56
52935;BME280;38802;50.198;19.796;2023-07-30T11:34:27;95759.84;;;24.12;60.66
52935;BME280;38802;50.198;19.796;2023-07-30T11:36:55;95761.58;;;24.10;60.87
52935;BME280;38802;50.198;19.796;2023-07-30T11:39:23;95756.94;;;24.11;60.86
52935;BME280;38802;50.198;19.796;2023-07-30T11:41:50;95756.97;;;24.09;61.03
52935;BME280;38802;50.198;19.796;2023-07-30T11:44:49;95757.52;;;24.08;61.04
52935;BME280;38802;50.198;19.796;2023-07-30T11:47:21;95755.71;;;24.04;61.25
52935;BME280;38802;50.198;19.796;2023-07-30T11:49:58;95759.27;;;24.04;61.10
52935;BME280;38802;50.198;19.796;2023-07-30T11:52:25;95758.01;;;23.97;61.25
52935;BME280;38802;50.198;19.796;2023-07-30T11:55:03;95762.79;;;23.90;61.36
52935;BME280;38802;50.198;19.796;2023-07-30T11:57:34;95763.24;;;23.89;61.51
52935;BME280;38802;50.198;19.796;2023-07-30T12:00:06;95760.71;;;23.88;61.44
52935;BME280;38802;50.198;19.796;2023-07-30T12:02:38;95756.74;;;23.77;61.42
52935;BME280;38802;50.198;19.796;2023-07-30T12:05:06;95756.09;;;23.69;61.56
52935;BME280;38802;50.198;19.796;2023-07-30T12:07:41;95760.05;;;23.62;61.79
52935;BME280;38802;50.198;19.796;2023-07-30T12:10:10;95762.63;;;23.59;61.90
52935;BME280;38802;50.198;19.796;2023-07-30T12:12:44;95759.70;;;23.57;61.79
52935;BME280;38802;50.198;19.796;2023-07-30T12:15:12;95761.79;;;23.56;62.10
52935;BME280;38802;50.198;19.796;2023-07-30T12:17:39;95761.92;;;23.55;62.32
52935;BME280;38802;50.198;19.796;2023-07-30T12:20:06;95759.21;;;23.60;61.94
52935;BME280;38802;50.198;19.796;2023-07-30T12:22:34;95758.91;;;23.61;62.11
52935;BME280;38802;50.198;19.796;2023-07-30T12:25:02;95759.23;;;23.59;62.14
52935;BME280;38802;50.198;19.796;2023-07-30T12:27:30;95755.12;;;23.56;62.19
52935;BME280;38802;50.198;19.796;2023-07-30T12:29:56;95760.74;;;23.51;62.23
52935;BME280;38802;50.198;19.796;2023-07-30T12:32:23;95759.00;;;23.43;62.44
52935;BME280;38802;50.198;19.796;2023-07-30T12:34:51;95753.95;;;23.40;62.53
52935;BME280;38802;50.198;19.796;2023-07-30T12:37:17;95747.08;;;23.38;62.59
52935;BME280;38802;50.198;19.796;2023-07-30T12:39:44;95750.74;;;23.31;62.63
52935;BME280;38802;50.198;19.796;2023-07-30T12:42:30;95751.27;;;23.24;62.78
52935;BME280;38802;50.198;19.796;2023-07-30T12:44:58;95754.52;;;23.25;62.94
52935;BME280;38802;50.198;19.796;2023-07-30T12:47:25;95754.89;;;23.24;63.01
52935;BME280;38802;50.198;19.796;2023-07-30T12:49:51;95750.33;;;23.23;63.12
52935;BME280;38802;50.198;19.796;2023-07-30T12:52:18;95746.62;;;23.20;63.09
52935;BME280;38802;50.198;19.796;2023-07-30T12:54:44;95745.41;;;23.17;63.19
52935;BME280;38802;50.198;19.796;2023-07-30T12:57:11;95744.05;;;23.11;63.15